Xavantina, Brazil
Current Conditions -  °F | °C
As of 1:00 AM on Thursday 23 Oct 2014 (Local Time) from SBCH Reporting Station
Clear Clear  
Wind Chill: 68°   Ceiling: Unl
Heat Index: 68°   Visibility: 6mi
Dew Point: 54°   Wind: 12mph
Humidity: 60%   Direction: 100°E
Pressure: 30.09"   Gusts: NA
Location:  27.07°S, 52.34°W
Report Text: SBCH 230300Z 10010KT CAVOK 20/12 Q1019
Loading
Personal Weather Stations






























Interactive Weather Map
Tropical Storm Tracking
New forecast layout! Learn more

10-Day Weather Forecast

Advertisements
Track Severe Weather on mobile